地図

経路データ

SID SEASON NUMBER BASIN SUBBASIN NAME ISO_TIME NATURE LAT LON WMO_WIND WMO_PRES WMO_AGENCY TRACK_TYPE DIST2LAND LANDFALL IFLAG USA_AGENCY USA_ATCF_ID USA_LAT USA_LON USA_RECORD USA_STATUS USA_WIND USA_PRES USA_SSHS USA_R34_NE USA_R34_SE USA_R34_SW USA_R34_NW USA_R50_NE USA_R50_SE USA_R50_SW USA_R50_NW USA_R64_NE USA_R64_SE USA_R64_SW USA_R64_NW USA_POCI USA_ROCI USA_RMW USA_EYE TOKYO_LAT TOKYO_LON TOKYO_GRADE TOKYO_WIND TOKYO_PRES TOKYO_R50_DIR TOKYO_R50_LONG TOKYO_R50_SHORT TOKYO_R30_DIR TOKYO_R30_LONG TOKYO_R30_SHORT TOKYO_LAND CMA_LAT CMA_LON CMA_CAT CMA_WIND CMA_PRES HKO_LAT HKO_LON HKO_CAT HKO_WIND HKO_PRES NEWDELHI_LAT NEWDELHI_LON NEWDELHI_GRADE NEWDELHI_WIND NEWDELHI_PRES NEWDELHI_CI NEWDELHI_DP NEWDELHI_POCI REUNION_LAT REUNION_LON REUNION_TYPE REUNION_WIND REUNION_PRES REUNION_TNUM REUNION_CI REUNION_RMW REUNION_R34_NE REUNION_R34_SE REUNION_R34_SW REUNION_R34_NW REUNION_R50_NE REUNION_R50_SE REUNION_R50_SW REUNION_R50_NW REUNION_R64_NE REUNION_R64_SE REUNION_R64_SW REUNION_R64_NW BOM_LAT BOM_LON BOM_TYPE BOM_WIND BOM_PRES BOM_TNUM BOM_CI BOM_RMW BOM_R34_NE BOM_R34_SE BOM_R34_SW BOM_R34_NW BOM_R50_NE BOM_R50_SE BOM_R50_SW BOM_R50_NW BOM_R64_NE BOM_R64_SE BOM_R64_SW BOM_R64_NW BOM_ROCI BOM_POCI BOM_EYE BOM_POS_METHOD BOM_PRES_METHOD NADI_LAT NADI_LON NADI_CAT NADI_WIND NADI_PRES WELLINGTON_LAT WELLINGTON_LON WELLINGTON_WIND WELLINGTON_PRES DS824_LAT DS824_LON DS824_STAGE DS824_WIND DS824_PRES TD9636_LAT TD9636_LON TD9636_STAGE TD9636_WIND TD9636_PRES TD9635_LAT TD9635_LON TD9635_WIND TD9635_PRES TD9635_ROCI NEUMANN_LAT NEUMANN_LON NEUMANN_CLASS NEUMANN_WIND NEUMANN_PRES MLC_LAT MLC_LON MLC_CLASS MLC_WIND MLC_PRES USA_GUST BOM_GUST BOM_GUST_PER REUNION_GUST REUNION_GUST_PER USA_SEAHGT USA_SEARAD_NE USA_SEARAD_SE USA_SEARAD_SW USA_SEARAD_NW STORM_SPEED STORM_DIR
1926021S10062 1926 6 SI MM NOT_NAMED 1926-01-21 06:00:00 NR -10.3000 61.7000 reunion main 1177 1163 _____O________ -1 -10.3000 61.7000 99 9.90000 2 229
1926021S10062 1926 6 SI MM NOT_NAMED 1926-01-21 09:00:00 NR -10.3776 61.6136 main 1163 1149 _____P________ -1 -10.3776 61.6136 99 2 228
1926021S10062 1926 6 SI MM NOT_NAMED 1926-01-21 12:00:00 NR -10.4560 61.5234 main 1149 1145 _____P________ -1 -10.4560 61.5234 99 2 229
1926021S10062 1926 6 SI MM NOT_NAMED 1926-01-21 15:00:00 NR -10.5364 61.4259 main 1145 1131 _____P________ -1 -10.5364 61.4259 99 3 231
1926021S10062 1926 6 SI MM NOT_NAMED 1926-01-21 18:00:00 NR -10.6197 61.3175 main 1131 1116 _____P________ -1 -10.6197 61.3175 99 3 233
1926021S10062 1926 6 SI MM NOT_NAMED 1926-01-21 21:00:00 NR -10.7067 61.1943 main 1116 1102 _____P________ -1 -10.7067 61.1943 99 3 235
1926021S10062 1926 6 SI MM NOT_NAMED 1926-01-22 00:00:00 NR -10.7985 61.0528 main 1102 1085 _____P________ -1 -10.7985 61.0528 99 4 238
1926021S10062 1926 6 SI MM NOT_NAMED 1926-01-22 03:00:00 NR -10.8959 60.8893 main 1085 1067 _____P________ -1 -10.8959 60.8893 99 4 240
1926021S10062 1926 6 SI MM NOT_NAMED 1926-01-22 06:00:00 NR -11.0000 60.7000 reunion main 1067 1050 _____O________ -1 -11.0000 60.7000 99 9.90000 5 242
1926021S10062 1926 6 SI MM NOT_NAMED 1926-01-22 09:00:00 NR -11.1114 60.4826 main 1050 1034 _____P________ -1 -11.1114 60.4826 99 5 243
1926021S10062 1926 6 SI MM NOT_NAMED 1926-01-22 12:00:00 NR -11.2303 60.2402 main 1031 1015 _____P________ -1 -11.2303 60.2402 99 6 244
1926021S10062 1926 6 SI MM NOT_NAMED 1926-01-22 15:00:00 NR -11.3566 59.9769 main 1004 986 _____P________ -1 -11.3566 59.9769 99 6 244
1926021S10062 1926 6 SI MM NOT_NAMED 1926-01-22 18:00:00 NR -11.4903 59.6972 main 986 968 _____P________ -1 -11.4903 59.6972 99 6 244
1926021S10062 1926 6 SI MM NOT_NAMED 1926-01-22 21:00:00 NR -11.6315 59.4053 main 968 940 _____P________ -1 -11.6315 59.4053 99 6 243
1926021S10062 1926 6 SI MM NOT_NAMED 1926-01-23 00:00:00 NR -11.7802 59.1056 main 940 925 _____P________ -1 -11.7802 59.1056 99 7 243
1926021S10062 1926 6 SI MM NOT_NAMED 1926-01-23 03:00:00 NR -11.9363 58.8024 main 925 899 _____P________ -1 -11.9363 58.8024 99 7 242
1926021S10062 1926 6 SI MM NOT_NAMED 1926-01-23 06:00:00 NR -12.1000 58.5000 reunion main 899 874 _____O________ -1 -12.1000 58.5000 99 9.90000 7 240
1926021S10062 1926 6 SI MM NOT_NAMED 1926-01-23 09:00:00 NR -12.2670 58.2076 main 874 858 _____P________ -1 -12.2670 58.2076 99 7 239
1926021S10062 1926 6 SI MM NOT_NAMED 1926-01-23 12:00:00 NR -12.4422 57.9119 main 858 820 _____P________ -1 -12.4422 57.9119 99 7 238
1926021S10062 1926 6 SI MM NOT_NAMED 1926-01-23 15:00:00 NR -12.6245 57.6153 main 820 781 _____P________ -1 -12.6245 57.6153 99 7 237
1926021S10062 1926 6 SI MM NOT_NAMED 1926-01-23 18:00:00 NR -12.8126 57.3200 main 781 743 _____P________ -1 -12.8126 57.3200 99 7 236
1926021S10062 1926 6 SI MM NOT_NAMED 1926-01-23 21:00:00 NR -13.0054 57.0285 main 743 715 _____P________ -1 -13.0054 57.0285 99 7 235
1926021S10062 1926 6 SI MM NOT_NAMED 1926-01-24 00:00:00 NR -13.2016 56.7431 main 705 677 _____P________ -1 -13.2016 56.7431 99 7 234
1926021S10062 1926 6 SI MM NOT_NAMED 1926-01-24 03:00:00 NR -13.4002 56.4661 main 677 639 _____P________ -1 -13.4002 56.4661 99 7 233
1926021S10062 1926 6 SI MM NOT_NAMED 1926-01-24 06:00:00 NR -13.6000 56.2000 reunion main 639 612 _____O________ -1 -13.6000 56.2000 99 9.90000 6 234
1926021S10062 1926 6 SI MM NOT_NAMED 1926-01-24 09:00:00 NR -13.7721 55.9473 main 602 578 _____P________ -1 -13.7721 55.9473 99 6 234
1926021S10062 1926 6 SI MM NOT_NAMED 1926-01-24 12:00:00 NR -13.9436 55.7047 main 578 552 _____P________ -1 -13.9436 55.7047 99 6 233
1926021S10062 1926 6 SI MM NOT_NAMED 1926-01-24 15:00:00 NR -14.1188 55.4712 main 552 526 _____P________ -1 -14.1188 55.4712 99 6 231
1926021S10062 1926 6 SI MM NOT_NAMED 1926-01-24 18:00:00 NR -14.3020 55.2457 main 515 490 _____P________ -1 -14.3020 55.2457 99 6 229
1926021S10062 1926 6 SI MM NOT_NAMED 1926-01-24 21:00:00 NR -14.4974 55.0269 main 490 465 _____P________ -1 -14.4974 55.0269 99 6 226
1926021S10062 1926 6 SI MM NOT_NAMED 1926-01-25 00:00:00 NR -14.7094 54.8139 main 465 441 _____P________ -1 -14.7094 54.8139 99 6 222
1926021S10062 1926 6 SI MM NOT_NAMED 1926-01-25 03:00:00 NR -14.9421 54.6053 main 441 418 _____P________ -1 -14.9421 54.6053 99 6 219
1926021S10062 1926 6 SI MM NOT_NAMED 1926-01-25 06:00:00 NR -15.2000 54.4000 reunion main 418 396 _____O________ -1 -15.2000 54.4000 99 9.90000 7 218
1926021S10062 1926 6 SI MM NOT_NAMED 1926-01-25 09:00:00 NR -15.4982 54.1498 main 386 367 _____P________ -1 -15.4982 54.1498 99 8 218
1926021S10062 1926 6 SI MM NOT_NAMED 1926-01-25 12:00:00 NR -15.8222 53.8986 main 367 349 _____P________ -1 -15.8222 53.8986 99 8 215
1926021S10062 1926 6 SI MM NOT_NAMED 1926-01-25 15:00:00 NR -16.1665 53.6540 main 354 333 _____P________ -1 -16.1665 53.6540 99 8 213
1926021S10062 1926 6 SI MM NOT_NAMED 1926-01-25 18:00:00 NR -16.5256 53.4237 main 333 327 _____P________ -1 -16.5256 53.4237 99 8 210
1926021S10062 1926 6 SI MM NOT_NAMED 1926-01-25 21:00:00 NR -16.8939 53.2152 main 332 327 _____P________ -1 -16.8939 53.2152 99 8 207
1926021S10062 1926 6 SI MM NOT_NAMED 1926-01-26 00:00:00 NR -17.2660 53.0365 main 331 331 _____P________ -1 -17.2660 53.0365 99 8 202
1926021S10062 1926 6 SI MM NOT_NAMED 1926-01-26 03:00:00 NR -17.6365 52.8955 main 338 337 _____P________ -1 -17.6365 52.8955 99 8 197
1926021S10062 1926 6 SI MM NOT_NAMED 1926-01-26 06:00:00 NR -18.0000 52.8000 reunion main 345 345 _____O________ -1 -18.0000 52.8000 99 9.90000 7 191
1926021S10062 1926 6 SI MM NOT_NAMED 1926-01-26 09:00:00 NR -18.3510 52.7543 main 357 347 _____P________ -1 -18.3510 52.7543 99 7 183
1926021S10062 1926 6 SI MM NOT_NAMED 1926-01-26 12:00:00 NR -18.7001 52.7533 main 362 343 _____P________ -1 -18.7001 52.7533 99 7 177
1926021S10062 1926 6 SI MM NOT_NAMED 1926-01-26 15:00:00 NR -19.0445 52.7920 main 343 306 _____P________ -1 -19.0445 52.7920 99 7 171
1926021S10062 1926 6 SI MM NOT_NAMED 1926-01-26 18:00:00 NR -19.3815 52.8652 main 306 277 _____P________ -1 -19.3815 52.8652 99 7 166
1926021S10062 1926 6 SI MM NOT_NAMED 1926-01-26 21:00:00 NR -19.7083 52.9678 main 277 250 _____P________ -1 -19.7083 52.9678 99 7 161
1926021S10062 1926 6 SI MM NOT_NAMED 1926-01-27 00:00:00 NR -20.0222 53.0946 main 250 226 _____P________ -1 -20.0222 53.0946 99 7 157
1926021S10062 1926 6 SI MM NOT_NAMED 1926-01-27 03:00:00 NR -20.3203 53.2405 main 226 195 _____P________ -1 -20.3203 53.2405 99 6 154
1926021S10062 1926 6 SI MM NOT_NAMED 1926-01-27 06:00:00 NR -20.6000 53.4000 reunion main 195 179 _____O________ -1 -20.6000 53.4000 99 9.90000 6 152
1926021S10062 1926 6 SI MM NOT_NAMED 1926-01-27 09:00:00 NR -20.8466 53.5366 main 179 155 _____P________ -1 -20.8466 53.5366 99 5 150
1926021S10062 1926 6 SI MM NOT_NAMED 1926-01-27 12:00:00 NR -21.0733 53.6910 main 155 136 _____P________ -1 -21.0733 53.6910 99 5 145
1926021S10062 1926 6 SI MM NOT_NAMED 1926-01-27 15:00:00 NR -21.2852 53.8616 main 136 128 _____P________ -1 -21.2852 53.8616 99 5 141
1926021S10062 1926 6 SI MM NOT_NAMED 1926-01-27 18:00:00 NR -21.4872 54.0467 main 132 117 _____P________ -1 -21.4872 54.0467 99 5 138
1926021S10062 1926 6 SI MM NOT_NAMED 1926-01-27 21:00:00 NR -21.6847 54.2447 main 122 108 _____P________ -1 -21.6847 54.2447 99 5 136
1926021S10062 1926 6 SI MM NOT_NAMED 1926-01-28 00:00:00 NR -21.8825 54.4540 main 106 106 _____P________ -1 -21.8825 54.4540 99 6 135
1926021S10062 1926 6 SI MM NOT_NAMED 1926-01-28 03:00:00 NR -22.0859 54.6729 main 108 108 _____P________ -1 -22.0859 54.6729 99 6 135
1926021S10062 1926 6 SI MM NOT_NAMED 1926-01-28 06:00:00 NR -22.3000 54.9000 reunion main 119 119 _____O________ -1 -22.3000 54.9000 99 9.90000 7 138
1926021S10062 1926 6 SI MM NOT_NAMED 1926-01-28 09:00:00 NR -22.5731 55.1503 main 140 140 _____P________ -1 -22.5731 55.1503 99 7 140
1926021S10062 1926 6 SI MM NOT_NAMED 1926-01-28 12:00:00 NR -22.8581 55.4143 main 168 168 _____P________ -1 -22.8581 55.4143 99 8 139
1926021S10062 1926 6 SI MM NOT_NAMED 1926-01-28 15:00:00 NR -23.1475 55.6852 main 190 190 _____P________ -1 -23.1475 55.6852 99 8 139
1926021S10062 1926 6 SI MM NOT_NAMED 1926-01-28 18:00:00 NR -23.4339 55.9562 main 227 227 _____P________ -1 -23.4339 55.9562 99 7 139
1926021S10062 1926 6 SI MM NOT_NAMED 1926-01-28 21:00:00 NR -23.7097 56.2204 main 264 264 _____P________ -1 -23.7097 56.2204 99 7 139
1926021S10062 1926 6 SI MM NOT_NAMED 1926-01-29 00:00:00 NR -23.9676 56.4705 main 304 304 _____P________ -1 -23.9676 56.4705 99 7 138
1926021S10062 1926 6 SI MM NOT_NAMED 1926-01-29 03:00:00 NR -24.2001 56.6995 main 332 332 _____P________ -1 -24.2001 56.6995 99 6 138
1926021S10062 1926 6 SI MM NOT_NAMED 1926-01-29 06:00:00 NR -24.4000 56.9000 reunion main 360 360 _____O________ -1 -24.4000 56.9000 99 9.90000 5 137
1926021S10062 1926 6 SI MM NOT_NAMED 1926-01-29 09:00:00 NR -24.5620 57.0667 main 389 389 _____P________ -1 -24.5620 57.0667 99 4 137
1926021S10062 1926 6 SI MM NOT_NAMED 1926-01-29 12:00:00 NR -24.6891 57.2018 main 403 403 _____P________ -1 -24.6891 57.2018 99 3 136
1926021S10062 1926 6 SI MM NOT_NAMED 1926-01-29 15:00:00 NR -24.7864 57.3099 main 417 417 _____P________ -1 -24.7864 57.3099 99 2 134
1926021S10062 1926 6 SI MM NOT_NAMED 1926-01-29 18:00:00 NR -24.8588 57.3952 main 432 432 _____P________ -1 -24.8588 57.3952 99 2 132
1926021S10062 1926 6 SI MM NOT_NAMED 1926-01-29 21:00:00 NR -24.9114 57.4624 main 436 436 _____P________ -1 -24.9114 57.4624 99 1 129
1926021S10062 1926 6 SI MM NOT_NAMED 1926-01-30 00:00:00 NR -24.9492 57.5159 main 436 436 _____P________ -1 -24.9492 57.5159 99 1 126
1926021S10062 1926 6 SI MM NOT_NAMED 1926-01-30 03:00:00 NR -24.9771 57.5602 main 451 451 _____P________ -1 -24.9771 57.5602 99 1 122
1926021S10062 1926 6 SI MM NOT_NAMED 1926-01-30 06:00:00 NR -25.0000 57.6000 reunion main 451 _____O________ -1 -25.0000 57.6000 99 9.90000 1 125

IBTrACS Databaseについて

本データベースは、米国NOAAが公開する1842年以降の世界の熱帯低気圧のベストトラックデータアーカイブInternational Best Track Archive for Climate Stewardship (IBTrACS)を、ウェブで閲覧しやすい形式に変換したものです。

最終更新日:2021-11-26